createdAt,value
2022-08-24T00:01:33.796Z,1.91
2022-08-24T00:06:40.042Z,2.13
2022-08-24T00:11:46.190Z,1.71
2022-08-24T00:16:52.724Z,1.80
2022-08-24T00:21:58.769Z,1.73
2022-08-24T00:27:05.067Z,1.86
2022-08-24T00:32:11.317Z,1.93
2022-08-24T00:37:17.488Z,1.62
2022-08-24T00:42:23.636Z,1.79
2022-08-24T00:47:30.209Z,1.98
2022-08-24T00:52:36.342Z,2.09
2022-08-24T00:57:42.635Z,1.87
2022-08-24T01:02:48.842Z,1.75
2022-08-24T01:07:55.013Z,1.89
2022-08-24T01:13:01.571Z,1.99
2022-08-24T01:18:07.605Z,1.78
2022-08-24T01:23:13.748Z,1.86
2022-08-24T01:28:23.405Z,1.82
2022-08-24T01:33:26.052Z,2.06
2022-08-24T01:38:32.368Z,2.08
2022-08-24T01:43:38.896Z,1.87
2022-08-24T01:48:45.148Z,2.02
2022-08-24T01:53:51.279Z,1.96
2022-08-24T01:58:57.630Z,2.07
2022-08-24T02:04:03.755Z,2.00
2022-08-24T02:09:09.958Z,2.15
2022-08-24T02:14:16.080Z,2.01
2022-08-24T02:19:22.373Z,1.94
2022-08-24T02:24:28.668Z,2.02
2022-08-24T02:29:34.968Z,2.16
2022-08-24T02:34:41.165Z,2.00
2022-08-24T02:39:47.458Z,2.00
2022-08-24T02:44:53.720Z,2.17
2022-08-24T02:49:59.453Z,2.01
2022-08-24T02:55:05.537Z,2.11
2022-08-24T03:00:11.826Z,2.08
2022-08-24T03:05:17.953Z,1.91
2022-08-24T03:10:24.285Z,2.11
2022-08-24T03:15:30.498Z,1.94
2022-08-24T03:20:36.837Z,2.37
2022-08-24T03:25:42.958Z,2.16
2022-08-24T03:30:49.199Z,1.93
2022-08-24T03:35:54.982Z,2.07
2022-08-24T03:41:01.285Z,2.33
2022-08-24T03:46:07.485Z,2.25
2022-08-24T03:51:13.649Z,2.30
2022-08-24T03:56:19.773Z,2.40
2022-08-24T04:01:26.113Z,2.51
2022-08-24T04:06:32.172Z,2.26
2022-08-24T04:11:41.086Z,2.20
2022-08-24T04:16:44.295Z,2.41
2022-08-24T04:21:50.124Z,2.09
2022-08-24T04:26:56.424Z,2.19
2022-08-24T04:32:02.715Z,2.48
2022-08-24T04:37:11.475Z,2.22
2022-08-24T04:42:14.540Z,2.33
2022-08-24T04:47:20.169Z,2.52
2022-08-24T04:52:26.520Z,2.34
2022-08-24T04:57:32.688Z,2.45
2022-08-24T05:02:43.004Z,2.58
2022-08-24T05:07:44.872Z,2.37
2022-08-24T05:12:51.555Z,2.49
2022-08-24T05:17:57.769Z,3.17
2022-08-24T05:23:04.635Z,2.43
2022-08-24T05:28:09.919Z,2.27
2022-08-24T05:33:16.344Z,2.54
2022-08-24T05:38:22.461Z,2.47
2022-08-24T05:43:28.716Z,2.95
2022-08-24T05:48:34.964Z,2.58
2022-08-24T05:53:41.273Z,2.49
2022-08-24T05:58:47.383Z,2.56
2022-08-24T06:03:53.612Z,2.55
2022-08-24T06:08:59.753Z,2.98
2022-08-24T06:14:07.283Z,2.82
2022-08-24T06:19:11.581Z,3.17
2022-08-24T06:24:17.790Z,2.85
2022-08-24T06:29:23.961Z,3.27
2022-08-24T06:34:30.380Z,3.36
2022-08-24T06:39:36.585Z,2.67
2022-08-24T06:44:42.860Z,3.32
2022-08-24T06:49:48.981Z,2.85
2022-08-24T06:54:55.582Z,2.82
2022-08-24T07:00:01.713Z,2.95
2022-08-24T07:05:08.010Z,2.89
2022-08-24T07:10:14.141Z,2.65
2022-08-24T07:15:20.402Z,2.69
2022-08-24T07:20:26.633Z,2.85
2022-08-24T07:25:32.970Z,2.93
2022-08-24T07:30:38.657Z,2.68
2022-08-24T07:35:44.897Z,2.62
2022-08-24T07:41:14.279Z,2.58
2022-08-24T07:45:57.343Z,2.51
2022-08-24T07:51:03.751Z,2.36
2022-08-24T07:56:09.550Z,2.27
2022-08-24T08:01:15.744Z,2.52
2022-08-24T08:12:01.301Z,2.40
2022-08-24T08:17:07.626Z,2.53
2022-08-24T08:22:13.765Z,2.33
2022-08-24T08:27:19.953Z,2.22
2022-08-24T08:32:26.096Z,2.47
2022-08-24T08:38:18.808Z,2.39
2022-08-24T08:43:24.998Z,2.43
2022-08-24T08:48:31.360Z,2.72
2022-08-24T08:53:37.480Z,2.55
2022-08-24T08:58:51.078Z,2.16
2022-08-24T09:03:49.501Z,2.16
2022-08-24T09:08:55.776Z,2.15
2022-08-24T09:14:01.920Z,2.17
2022-08-24T09:19:08.145Z,2.46
2022-08-24T09:24:14.374Z,2.34
2022-08-24T09:29:20.714Z,2.59
2022-08-24T09:34:26.457Z,2.47
2022-08-24T09:39:33.117Z,2.45
2022-08-24T09:44:39.321Z,2.22
2022-08-24T09:49:45.704Z,2.32
2022-08-24T09:54:51.865Z,2.27
2022-08-24T09:59:58.461Z,2.15
2022-08-24T10:05:04.631Z,2.54
2022-08-24T10:10:10.749Z,2.39
2022-08-24T10:15:16.911Z,2.18
2022-08-24T10:20:23.141Z,2.69
2022-08-24T10:25:29.245Z,2.57
2022-08-24T10:30:35.572Z,2.17
2022-08-24T10:35:41.769Z,2.51
2022-08-24T10:40:48.425Z,2.23
2022-08-24T10:45:54.632Z,2.49
2022-08-24T10:51:00.764Z,2.53
2022-08-24T10:56:06.865Z,2.39
2022-08-24T11:01:14.992Z,2.54
2022-08-24T11:06:21.637Z,2.31
2022-08-24T11:11:27.968Z,2.08
2022-08-24T11:16:34.179Z,2.58
2022-08-24T11:21:40.724Z,2.40
2022-08-24T11:26:46.970Z,2.39
2022-08-24T11:31:52.866Z,2.13
2022-08-24T11:36:59.358Z,2.15
2022-08-24T11:42:05.632Z,2.23
2022-08-24T11:47:11.769Z,1.97
2022-08-24T11:52:18.096Z,2.13
2022-08-24T11:57:24.305Z,1.95
2022-08-24T12:02:31.149Z,2.26
2022-08-24T12:07:37.157Z,2.07
2022-08-24T12:12:43.553Z,2.12
2022-08-24T12:18:46.373Z,2.12
2022-08-24T12:23:52.729Z,2.07
2022-08-24T12:28:58.916Z,2.17
2022-08-24T12:34:07.611Z,2.17
2022-08-24T12:39:10.961Z,2.18
2022-08-24T12:44:17.143Z,2.12
2022-08-24T12:49:23.364Z,2.01
2022-08-24T12:54:33.114Z,2.21
2022-08-24T12:59:35.295Z,2.17
2022-08-24T13:04:41.569Z,2.05
2022-08-24T13:09:47.800Z,2.19
2022-08-24T13:14:54.164Z,2.25
2022-08-24T13:19:59.774Z,2.32
2022-08-24T13:25:05.996Z,2.37
2022-08-24T13:30:12.228Z,2.62
2022-08-24T13:35:18.537Z,2.25
2022-08-24T13:40:27.853Z,2.56
2022-08-24T13:45:30.557Z,2.20
2022-08-24T13:50:36.635Z,2.10
2022-08-24T13:55:43.068Z,2.13
2022-08-24T14:00:49.263Z,2.41
2022-08-24T14:05:57.482Z,2.06
2022-08-24T14:11:01.546Z,2.27
2022-08-24T14:16:08.153Z,2.56
2022-08-24T14:21:17.989Z,2.13
2022-08-24T14:26:20.118Z,2.17
2022-08-24T14:31:26.238Z,2.11
2022-08-24T14:36:32.577Z,2.17
2022-08-24T14:41:39.096Z,2.28
2022-08-24T14:46:45.425Z,2.32
2022-08-24T14:51:51.809Z,2.21
2022-08-24T14:56:58.012Z,2.42
2022-08-24T15:02:04.491Z,2.22
2022-08-24T15:07:11.120Z,2.10
2022-08-24T15:12:17.261Z,2.25
2022-08-24T15:17:23.478Z,2.49
2022-08-24T15:22:29.604Z,2.24
2022-08-24T15:27:36.888Z,2.24
2022-08-24T15:32:42.990Z,2.24
2022-08-24T15:37:49.223Z,2.22
2022-08-24T15:42:55.381Z,2.21
2022-08-24T15:48:01.708Z,2.53
2022-08-24T15:53:07.846Z,2.19
2022-08-24T15:58:14.105Z,2.16
2022-08-24T16:03:20.184Z,2.22
2022-08-24T16:08:26.431Z,2.53
2022-08-24T16:13:32.656Z,2.56
2022-08-24T16:18:39.252Z,2.53
2022-08-24T16:23:45.669Z,3.79
2022-08-24T16:28:52.064Z,2.59
2022-08-24T16:33:58.220Z,2.33
2022-08-24T16:39:54.570Z,2.19
2022-08-24T16:45:00.769Z,2.38
2022-08-24T16:50:06.988Z,2.40
2022-08-24T16:55:14.560Z,2.46
2022-08-24T17:00:19.412Z,2.34
2022-08-24T17:05:25.553Z,2.48
2022-08-24T17:10:34.986Z,2.25
2022-08-24T17:15:37.872Z,2.23
2022-08-24T17:20:44.466Z,2.23
2022-08-24T17:25:50.784Z,2.24
2022-08-24T17:30:56.505Z,2.16
2022-08-24T17:36:02.594Z,2.48
2022-08-24T17:41:08.357Z,2.27
2022-08-24T17:46:14.133Z,2.34
2022-08-24T17:51:20.325Z,4.82
2022-08-24T17:56:26.581Z,3.37
2022-08-24T18:01:32.899Z,2.36
2022-08-24T18:06:39.069Z,2.63
2022-08-24T18:11:45.436Z,2.46
2022-08-24T18:16:54.383Z,2.82
2022-08-24T18:21:58.409Z,2.54
2022-08-24T18:27:10.094Z,2.55
2022-08-24T18:32:10.457Z,2.78
2022-08-24T18:37:16.689Z,2.61
2022-08-24T18:42:22.958Z,2.64
2022-08-24T18:47:29.190Z,2.59
2022-08-24T18:52:35.797Z,2.70
2022-08-24T18:57:41.992Z,2.54
2022-08-24T19:02:48.375Z,2.69
2022-08-24T19:07:54.523Z,2.38
2022-08-24T19:13:00.955Z,2.88
2022-08-24T19:18:07.090Z,2.85
2022-08-24T19:23:13.424Z,2.92
2022-08-24T19:28:19.580Z,2.86
2022-08-24T19:33:25.973Z,2.96
2022-08-24T19:38:32.194Z,2.98
2022-08-24T19:43:38.876Z,2.82
2022-08-24T19:48:45.334Z,2.86
2022-08-24T19:53:51.673Z,2.73
2022-08-24T19:58:57.888Z,2.65
2022-08-24T20:04:06.067Z,2.59
2022-08-24T20:09:09.903Z,2.64
2022-08-24T20:14:16.280Z,3.08
2022-08-24T20:19:22.522Z,3.04
2022-08-24T20:24:28.858Z,3.13
2022-08-24T20:29:35.065Z,2.80
2022-08-24T20:34:41.404Z,2.77
2022-08-24T20:39:47.548Z,2.90
2022-08-24T20:44:53.844Z,3.02
2022-08-24T20:49:59.925Z,2.82
2022-08-24T20:55:06.234Z,2.89
2022-08-24T21:00:13.389Z,2.80
2022-08-24T21:05:19.713Z,2.90
2022-08-24T21:10:26.687Z,2.69
2022-08-24T21:15:31.653Z,2.83
2022-08-24T21:20:37.793Z,3.03
2022-08-24T21:25:43.757Z,2.83
2022-08-24T21:30:50.444Z,2.62
2022-08-24T21:35:56.988Z,3.27
2022-08-24T21:41:03.224Z,2.74
2022-08-24T21:46:08.997Z,2.51
2022-08-24T21:51:15.141Z,2.64
2022-08-24T21:56:21.312Z,2.76
2022-08-24T22:01:27.531Z,3.33
2022-08-24T22:06:33.777Z,2.51
2022-08-24T22:11:39.877Z,2.74
2022-08-24T22:16:46.182Z,3.01
2022-08-24T22:21:52.397Z,2.75
2022-08-24T22:26:58.620Z,3.08
2022-08-24T22:32:04.832Z,2.80
2022-08-24T22:37:11.498Z,2.97
2022-08-24T22:42:17.941Z,2.91
2022-08-24T22:47:24.153Z,3.45
2022-08-24T22:52:30.382Z,3.06
2022-08-24T22:57:36.628Z,2.76
2022-08-24T23:02:43.064Z,2.89
2022-08-24T23:07:49.405Z,2.68
2022-08-24T23:12:55.548Z,3.18
2022-08-24T23:18:01.955Z,2.82
2022-08-24T23:23:08.109Z,2.84
2022-08-24T23:28:14.440Z,2.91
2022-08-24T23:33:20.648Z,2.66
2022-08-24T23:38:27.040Z,3.14
2022-08-24T23:43:33.213Z,2.76
2022-08-24T23:48:39.476Z,2.93
2022-08-24T23:53:45.611Z,3.01
2022-08-24T23:58:53.057Z,2.97
